Time;durP1;ratioP1;P1;durP2;ratioP2;P2;SDS_P1;SDS_P2;PMS_P1;PMS_P2;Temp;Humidity;BMP_temperature;BMP_pressure;BME280_temperature;BME280_humidity;BME280_pressure;Samples;Min_cycle;Max_cycle;Signal;HPM_P1;HPM_P2
2021/11/09 00:02:18;;;;;;;;;55.50;45.25;;;;;10.28;55.78;102063.25;4958518;28;45327;-40
2021/11/09 00:04:48;;;;;;;;;61.00;49.00;;;;;10.24;55.79;102048.34;4958549;28;45330;-40
2021/11/09 00:07:25;;;;;;;;;57.50;47.00;;;;;10.25;55.74;102057.97;4969746;28;46210;-40
2021/11/09 00:12:21;;;;;;;;;58.00;46.25;;;;;10.22;56.04;102052.69;4965091;28;45395;-40
2021/11/09 00:14:47;;;;;;;;;57.25;47.50;;;;;10.21;55.89;102049.19;4990130;28;45458;-40
2021/11/09 00:17:12;;;;;;;;;62.50;48.25;;;;;10.18;55.74;102043.03;4990611;28;46274;-40
2021/11/09 00:19:38;;;;;;;;;63.00;48.25;;;;;10.15;55.91;102043.88;4970359;28;45166;-40
2021/11/09 00:22:03;;;;;;;;;61.00;48.00;;;;;10.16;55.74;102045.66;4958082;28;45225;-40
2021/11/09 00:24:29;;;;;;;;;56.75;46.25;;;;;10.15;55.87;102043.88;4958151;28;45339;-40
2021/11/09 00:26:54;;;;;;;;;65.75;48.25;;;;;10.12;56.08;102043.84;4957667;28;45541;-40
2021/11/09 00:29:19;;;;;;;;;61.50;49.75;;;;;10.11;56.09;102042.09;4960868;28;46086;-40
2021/11/09 00:31:45;;;;;;;;;57.50;47.00;;;;;10.09;55.99;102039.44;4958007;28;45501;-40
2021/11/09 00:34:10;;;;;;;;;61.75;48.25;;;;;10.08;56.00;102035.06;4957823;28;45231;-40
2021/11/09 00:36:36;;;;;;;;;56.75;45.75;;;;;10.05;56.11;102024.53;4957703;28;47210;-41
2021/11/09 00:39:02;;;;;;;;;64.50;50.75;;;;;10.04;55.74;102035.03;4957902;28;45196;-40
2021/11/09 00:41:28;;;;;;;;;65.75;50.75;;;;;10.03;56.15;102035.91;4957817;28;45308;-40
2021/11/09 00:43:53;;;;;;;;;64.00;50.00;;;;;10.00;56.08;102033.22;4957668;28;45360;-40
2021/11/09 00:46:18;;;;;;;;;66.75;51.00;;;;;10.00;56.21;102039.38;4957611;28;45967;-41
2021/11/09 00:48:44;;;;;;;;;63.00;49.25;;;;;9.98;56.16;102033.22;4959016;28;45349;-40
2021/11/09 00:51:10;;;;;;;;;63.00;49.75;;;;;9.96;56.04;102021.84;4969721;28;45419;-40
2021/11/09 00:53:35;;;;;;;;;60.50;50.00;;;;;9.96;56.05;102024.47;4958614;28;45257;-40
2021/11/09 00:56:00;;;;;;;;;63.25;49.00;;;;;9.93;56.32;102024.44;4957630;28;46045;-40
2021/11/09 00:58:26;;;;;;;;;62.00;49.75;;;;;9.90;55.99;102024.41;4970404;28;45442;-40
2021/11/09 01:00:52;;;;;;;;;60.50;48.00;;;;;9.90;56.28;102032.28;4957530;28;45315;-40
2021/11/09 01:03:18;;;;;;;;;60.25;49.00;;;;;9.89;56.14;102038.41;4959172;28;45241;-41
2021/11/09 01:05:44;;;;;;;;;59.25;47.25;;;;;9.86;56.13;102036.63;4960935;28;47109;-40
2021/11/09 01:08:13;;;;;;;;;66.50;50.75;;;;;9.84;56.25;102030.47;4992395;28;45215;-40
2021/11/09 01:10:43;;;;;;;;;62.00;49.00;;;;;9.83;56.65;102039.22;4967283;28;45311;-41
2021/11/09 01:13:10;;;;;;;;;59.00;46.75;;;;;9.81;56.40;102034.81;4967107;28;45162;-41
2021/11/09 01:15:39;;;;;;;;;65.50;50.25;;;;;9.80;56.39;102033.94;4966338;28;46643;-40
2021/11/09 01:18:05;;;;;;;;;68.75;51.00;;;;;9.78;56.39;102051.41;4960239;28;45415;-41
2021/11/09 01:20:31;;;;;;;;;66.50;52.75;;;;;9.76;56.41;102050.53;4960209;28;45362;-40
2021/11/09 01:22:58;;;;;;;;;68.25;51.50;;;;;9.75;56.44;102054.88;4959168;28;45509;-41
2021/11/09 01:25:26;;;;;;;;;69.50;51.75;;;;;9.72;56.52;102052.25;4960101;28;46150;-40
2021/11/09 01:27:52;;;;;;;;;67.00;52.50;;;;;9.69;56.24;102049.56;4964109;28;45704;-40
2021/11/09 01:30:19;;;;;;;;;63.00;50.25;;;;;9.68;56.44;102053.06;4973504;28;45253;-40
2021/11/09 01:32:46;;;;;;;;;69.75;53.00;;;;;9.63;56.44;102046.00;4960056;28;45495;-40
2021/11/09 01:35:11;;;;;;;;;65.00;51.50;;;;;9.64;56.27;102053.91;4960026;28;46581;-40
2021/11/09 01:37:38;;;;;;;;;63.00;49.00;;;;;9.61;56.60;102048.63;4960147;28;45185;-40
2021/11/09 01:40:06;;;;;;;;;64.25;51.50;;;;;9.56;56.37;102048.56;4960063;28;45369;-41
2021/11/09 01:42:32;;;;;;;;;62.25;49.50;;;;;9.56;56.58;102052.94;4959979;28;45403;-40
2021/11/09 01:44:57;;;;;;;;;67.50;52.75;;;;;9.55;56.60;102059.06;4959757;28;46105;-40
2021/11/09 01:47:23;;;;;;;;;67.00;51.00;;;;;9.52;56.43;102056.38;4960036;28;45343;-40
2021/11/09 01:49:48;;;;;;;;;62.75;51.00;;;;;9.50;56.49;102060.75;4966837;28;45316;-41
2021/11/09 01:52:13;;;;;;;;;66.25;51.75;;;;;9.46;56.67;102051.97;4972236;28;45524;-40
2021/11/09 01:54:39;;;;;;;;;65.25;51.50;;;;;9.45;56.40;102052.81;4959884;28;46097;-40
2021/11/09 01:57:05;;;;;;;;;63.00;50.50;;;;;9.43;56.77;102055.44;4967052;28;45438;-40
2021/11/09 01:59:32;;;;;;;;;68.25;51.25;;;;;9.39;56.66;102053.63;4978335;28;45335;-40
2021/11/09 02:01:58;;;;;;;;;68.25;53.75;;;;;9.36;56.75;102057.97;4959557;28;45244;-40
2021/11/09 02:04:24;;;;;;;;;64.25;53.75;;;;;9.35;56.20;102064.06;4959970;28;46199;-41
2021/11/09 02:06:49;;;;;;;;;65.75;52.25;;;;;9.33;56.70;102060.53;4967855;28;45304;-40
2021/11/09 02:09:18;;;;;;;;;67.75;52.00;;;;;9.27;56.72;102051.75;4964573;28;45316;-40
2021/11/09 02:11:47;;;;;;;;;66.00;52.00;;;;;9.28;56.71;102060.47;4959760;28;45522;-40
2021/11/09 02:14:12;;;;;;;;;66.25;53.75;;;;;9.25;56.72;102061.31;4963504;28;45417;-40
2021/11/09 02:16:38;;;;;;;;;62.75;51.50;;;;;9.24;56.45;102059.59;4989737;28;45314;-40
2021/11/09 02:19:05;;;;;;;;;62.75;50.50;;;;;9.23;56.46;102054.28;4963387;28;45577;-40
2021/11/09 02:21:31;;;;;;;;;66.00;51.25;;;;;9.21;56.74;102048.16;4959692;28;45286;-40
2021/11/09 02:23:56;;;;;;;;;60.50;49.75;;;;;9.17;56.70;102054.22;4959301;28;45335;-40
2021/11/09 02:26:24;;;;;;;;;64.25;51.50;;;;;9.18;56.81;102058.59;4959657;28;45248;-40
2021/11/09 02:28:54;;;;;;;;;63.75;50.50;;;;;9.16;56.89;102062.97;4970864;28;45302;-41
2021/11/09 02:31:19;;;;;;;;;61.50;50.50;;;;;9.13;56.87;102058.53;4959563;28;45479;-40
2021/11/09 02:33:45;;;;;;;;;64.50;50.00;;;;;9.13;56.78;102061.16;4959015;28;46259;-40
2021/11/09 02:36:11;;;;;;;;;64.50;51.50;;;;;9.10;56.53;102063.75;4959363;28;45175;-40
2021/11/09 02:38:36;;;;;;;;;67.50;51.00;;;;;9.10;56.73;102067.25;4989246;28;45263;-40
2021/11/09 02:41:03;;;;;;;;;65.25;49.00;;;;;9.08;56.78;102065.47;4968882;28;45747;-40
2021/11/09 02:43:30;;;;;;;;;65.00;49.50;;;;;9.07;56.85;102068.97;4959111;28;45424;-44
2021/11/09 02:48:30;;;;;;;;;59.25;48.50;;;;;9.02;57.01;102065.38;4965010;28;45312;-40
2021/11/09 02:51:21;;;;;;;;;64.75;48.00;;;;;8.99;56.53;102071.47;4969137;28;45657;-40
2021/11/09 02:53:50;;;;;;;;;62.25;47.75;;;;;8.97;56.99;102073.22;4959386;28;46083;-41
2021/11/09 03:07:23;;;;;;;;;56.25;43.75;;;;;8.86;56.80;102070.44;4975867;28;45489;-40
2021/11/09 03:09:55;;;;;;;;;52.25;44.00;;;;;8.84;56.84;102063.41;4958794;27;45308;-40
2021/11/09 03:12:21;;;;;;;;;53.75;43.25;;;;;8.81;56.85;102066.00;4957601;28;45367;-40
2021/11/09 03:14:47;;;;;;;;;55.00;44.25;;;;;8.79;56.96;102068.56;4965504;28;46082;-40
2021/11/09 03:17:23;;;;;;;;;54.00;44.50;;;;;8.80;56.63;102072.09;4965281;28;45392;-41
2021/11/09 03:19:58;;;;;;;;;60.00;44.25;;;;;8.77;56.91;102067.69;4958991;28;45328;-40
2021/11/09 03:46:54;;;;;;;;;44.25;38.50;;;;;8.60;56.77;102059.56;4958243;28;45356;-40
2021/11/09 03:49:23;;;;;;;;;47.25;39.75;;;;;8.59;57.05;102057.78;4964616;28;45347;-40
2021/11/09 03:51:50;;;;;;;;;51.75;40.25;;;;;8.57;57.02;102056.91;4970823;28;45343;-40
2021/11/09 03:54:17;;;;;;;;;48.50;40.25;;;;;8.54;57.00;102063.00;4969449;28;45396;-40
2021/11/09 03:59:17;;;;;;;;;44.25;37.50;;;;;8.52;57.19;102056.81;4958302;28;45577;-40
2021/11/09 04:01:59;;;;;;;;;43.00;37.00;;;;;8.52;56.90;102064.69;4958259;28;45334;-40
2021/11/09 04:07:04;;;;;;;;;47.00;37.75;;;;;8.48;57.01;102054.13;4977718;28;45362;-40
2021/11/09 04:17:52;;;;;;;;;46.00;37.25;;;;;8.41;57.16;102059.22;4960864;28;45319;-40
2021/11/09 04:42:05;;;;;;;;;43.25;37.75;;;;;8.29;57.18;102086.13;4960818;28;45224;-40
2021/11/09 04:52:13;;;;;;;;;48.75;40.00;;;;;8.22;57.06;102093.84;4973689;28;45269;-40
2021/11/09 05:02:51;;;;;;;;;47.00;38.00;;;;;8.13;57.21;102105.06;4960543;28;45380;-40
2021/11/09 05:10:45;;;;;;;;;44.00;37.25;;;;;8.11;57.41;102104.13;4960293;28;45818;-42
2021/11/09 05:13:11;;;;;;;;;52.75;41.50;;;;;8.08;57.19;102104.97;4960527;28;45224;-41
2021/11/09 05:15:36;;;;;;;;;49.25;40.50;;;;;8.07;57.44;102110.19;4960505;28;45276;-40
2021/11/09 05:18:01;;;;;;;;;43.00;35.25;;;;;8.08;57.45;102112.81;4966274;28;45478;-39
2021/11/09 05:20:27;;;;;;;;;42.25;36.25;;;;;8.06;57.14;102113.66;4965879;28;46029;-40
2021/11/09 05:22:53;;;;;;;;;53.50;39.25;;;;;8.05;57.17;102118.00;4960371;28;45323;-41
2021/11/09 05:25:19;;;;;;;;;43.75;36.00;;;;;8.03;57.16;102124.06;4962252;28;45315;-40
2021/11/09 05:27:46;;;;;;;;;48.50;39.75;;;;;8.01;57.36;102115.31;4991680;28;45402;-40
2021/11/09 05:30:12;;;;;;;;;51.25;36.25;;;;;7.99;57.25;102117.91;4965090;28;46664;-40
2021/11/09 05:32:38;;;;;;;;;40.00;34.25;;;;;7.97;57.40;102119.59;4975211;28;45196;-40
2021/11/09 05:35:04;;;;;;;;;44.50;36.00;;;;;7.96;57.36;102117.81;4960194;28;45225;-39
2021/11/09 05:37:36;;;;;;;;;40.25;35.75;;;;;7.93;57.29;102112.53;4960480;28;45304;-40
2021/11/09 05:40:05;;;;;;;;;35.75;31.50;;;;;7.95;57.40;102123.94;4960005;28;46248;-40
2021/11/09 05:42:32;;;;;;;;;36.00;32.50;;;;;7.93;57.37;102131.75;4959981;28;45305;-40
2021/11/09 05:44:57;;;;;;;;;40.75;33.25;;;;;7.93;57.29;102128.25;4959989;28;45230;-40
2021/11/09 05:47:23;;;;;;;;;37.25;34.00;;;;;7.92;57.56;102136.94;4959799;28;45301;-39
2021/11/09 05:49:49;;;;;;;;;46.75;38.25;;;;;7.92;57.43;102136.94;4965494;28;46238;-40
2021/11/09 05:52:14;;;;;;;;;44.00;36.75;;;;;7.90;57.46;102138.66;4971940;28;45330;-40
2021/11/09 05:54:40;;;;;;;;;32.75;29.75;;;;;7.89;57.23;102137.78;4969624;28;45331;-40
2021/11/09 05:57:05;;;;;;;;;37.50;33.50;;;;;7.88;57.22;102140.38;4959819;28;45320;-40
2021/11/09 05:59:31;;;;;;;;;42.75;34.25;;;;;7.86;57.36;102145.59;4958484;28;46274;-40
2021/11/09 06:01:56;;;;;;;;;41.75;34.50;;;;;7.84;57.30;102146.41;4959660;28;45481;-41
2021/11/09 06:04:22;;;;;;;;;34.50;31.25;;;;;7.83;57.35;102148.13;4960076;28;45387;-41
2021/11/09 06:06:47;;;;;;;;;37.75;32.25;;;;;7.80;57.49;102150.69;4967671;28;45235;-41
2021/11/09 06:09:13;;;;;;;;;34.25;28.50;;;;;7.78;57.31;102149.78;4980085;28;45394;-42
2021/11/09 06:11:38;;;;;;;;;27.00;23.50;;;;;7.75;57.42;102150.59;4959735;28;45248;-41
2021/11/09 06:14:06;;;;;;;;;29.75;25.00;;;;;7.71;57.41;102142.66;4958350;28;45357;-41
2021/11/09 06:16:31;;;;;;;;;29.50;26.50;;;;;7.67;57.45;102148.69;4959648;28;45400;-41
2021/11/09 06:18:56;;;;;;;;;31.50;29.25;;;;;7.68;57.42;102153.94;4971122;28;45420;-41
2021/11/09 06:21:22;;;;;;;;;31.75;28.25;;;;;7.67;57.42;102157.41;4970830;28;45267;-41
2021/11/09 06:23:48;;;;;;;;;13.00;6.75;;;;;7.63;57.58;102158.19;4959788;28;45709;-41
2021/11/09 06:26:14;;;;;;;;;30.00;23.25;;;;;7.61;57.70;102158.16;4959413;28;45435;-41
2021/11/09 06:28:40;;;;;;;;;29.25;25.50;;;;;7.61;57.46;102160.78;4959431;28;45427;-40
2021/11/09 06:31:05;;;;;;;;;24.75;23.75;;;;;7.59;57.63;102154.63;4959435;28;45363;-40
2021/11/09 06:33:32;;;;;;;;;29.50;21.50;;;;;7.59;57.45;102164.22;4959333;28;45308;-40
2021/11/09 06:35:58;;;;;;;;;26.25;22.00;;;;;7.58;57.73;102159.84;4959507;28;45352;-40
2021/11/09 06:38:23;;;;;;;;;29.00;24.25;;;;;7.57;57.55;102168.53;4962858;28;46049;-40
2021/11/09 06:40:50;;;;;;;;;24.00;21.00;;;;;7.56;57.85;102164.13;4989838;28;45295;-40
2021/11/09 06:43:15;;;;;;;;;29.00;24.75;;;;;7.54;57.75;102169.34;4963764;28;45265;-41
2021/11/09 06:45:41;;;;;;;;;25.00;23.00;;;;;7.44;57.72;102151.69;4959236;28;45154;-40
2021/11/09 06:48:07;;;;;;;;;34.25;29.50;;;;;7.52;57.89;102175.41;4964890;28;45317;-41
2021/11/09 06:50:33;;;;;;;;;36.00;30.00;;;;;7.52;57.89;102175.41;4966232;28;45349;-41
2021/11/09 06:52:59;;;;;;;;;36.00;30.75;;;;;7.52;57.81;102178.00;4965099;28;45358;-40
2021/11/09 06:55:24;;;;;;;;;35.50;29.50;;;;;7.51;57.75;102182.38;4959140;28;45312;-40
2021/11/09 06:57:50;;;;;;;;;32.00;26.00;;;;;7.48;57.73;102177.97;4958822;28;45446;-40
2021/11/09 07:00:18;;;;;;;;;32.75;30.00;;;;;7.52;57.90;102191.09;4958333;28;45315;-40
2021/11/09 07:02:44;;;;;;;;;29.75;25.50;;;;;7.49;57.68;102189.28;4958886;28;45287;-40
2021/11/09 07:05:10;;;;;;;;;34.00;30.75;;;;;7.52;57.78;102197.22;4959835;28;45225;-40
2021/11/09 07:07:36;;;;;;;;;45.00;34.25;;;;;7.52;57.90;102191.09;4973463;28;45243;-40
2021/11/09 07:10:04;;;;;;;;;38.25;27.75;;;;;7.52;58.00;102194.63;4978729;28;45214;-40
2021/11/09 07:12:29;;;;;;;;;34.00;29.00;;;;;7.52;57.89;102199.84;4978235;28;45362;-40
2021/11/09 07:14:55;;;;;;;;;28.00;24.50;;;;;7.52;57.97;102197.22;4978516;28;45287;-40
2021/11/09 07:17:21;;;;;;;;;36.00;32.25;;;;;7.53;58.11;102193.72;4976706;28;45471;-40
2021/11/09 07:19:51;;;;;;;;;34.25;30.50;;;;;7.55;58.06;102201.66;4978338;28;45340;-40
2021/11/09 07:22:18;;;;;;;;;35.50;30.25;;;;;7.54;57.96;102202.47;4975061;28;45298;-40
2021/11/09 07:24:45;;;;;;;;;36.50;30.75;;;;;7.54;57.91;102210.34;4957687;28;45469;-40
2021/11/09 07:27:11;;;;;;;;;29.75;25.25;;;;;7.53;58.20;102201.59;4962127;28;46058;-41
2021/11/09 07:29:36;;;;;;;;;31.00;26.75;;;;;7.54;58.02;102203.34;4978371;28;45423;-40
2021/11/09 07:32:02;;;;;;;;;25.50;24.75;;;;;7.55;58.10;102201.66;4978311;28;45300;-40
2021/11/09 07:34:28;;;;;;;;;34.00;29.25;;;;;7.55;58.08;102212.97;4978007;28;45231;-42
2021/11/09 07:36:53;;;;;;;;;36.75;26.75;;;;;7.57;58.16;102207.78;4977878;28;45273;-42
2021/11/09 07:39:20;;;;;;;;;33.75;28.50;;;;;7.55;58.17;102215.59;4978358;28;45349;-40
2021/11/09 07:41:47;;;;;;;;;43.00;33.00;;;;;7.58;58.28;102212.16;4977682;28;45383;-40
2021/11/09 07:44:13;;;;;;;;;30.75;28.75;;;;;7.59;58.24;102219.16;4978079;28;45232;-41
2021/11/09 07:46:39;;;;;;;;;27.75;25.50;;;;;7.60;58.12;102224.41;4964482;28;45352;-40
2021/11/09 07:49:05;;;;;;;;;39.00;32.50;;;;;7.62;58.16;102224.44;4964858;28;45320;-38
2021/11/09 07:51:30;;;;;;;;;37.75;33.50;;;;;7.62;58.23;102219.22;4957309;28;45460;-42
2021/11/09 07:53:58;;;;;;;;;36.00;30.00;;;;;7.62;58.22;102220.13;4958623;28;45342;-44
2021/11/09 07:56:27;;;;;;;;;34.75;30.75;;;;;7.65;58.53;102227.16;4958347;28;47099;-44
2021/11/09 08:01:42;;;;;;;;;24.75;23.00;;;;;7.70;58.39;102225.50;4958155;28;45307;-46
2021/11/09 08:04:14;;;;;;;;;26.50;22.50;;;;;7.70;58.09;102228.13;4958198;28;45265;-47
2021/11/09 08:06:51;;;;;;;;;25.75;23.75;;;;;7.76;58.39;102224.75;4969754;28;47155;-43
2021/11/09 08:09:26;;;;;;;;;41.75;36.75;;;;;7.79;58.31;102222.22;4958229;28;45537;-44
2021/11/09 08:11:52;;;;;;;;;30.50;28.25;;;;;7.80;58.35;102224.84;4957106;28;45406;-45
2021/11/09 08:14:18;;;;;;;;;28.75;25.75;;;;;7.86;58.33;102226.72;4958264;28;45330;-46
2021/11/09 08:16:44;;;;;;;;;26.25;24.50;;;;;7.89;58.35;102220.66;4958098;28;46129;-45
2021/11/09 08:19:10;;;;;;;;;26.00;22.75;;;;;7.94;58.43;102226.88;4957986;28;45340;-49
2021/11/09 08:21:38;;;;;;;;;31.25;26.00;;;;;7.97;58.17;102232.16;4958254;28;45228;-46
2021/11/09 08:24:03;;;;;;;;;30.50;27.50;;;;;8.00;58.25;102232.25;4958017;28;45336;-46
2021/11/09 08:26:30;;;;;;;;;22.75;19.75;;;;;8.03;58.49;102234.03;4958048;28;46184;-43
2021/11/09 08:28:59;;;;;;;;;28.50;26.00;;;;;8.08;58.29;102227.16;4957867;28;45376;-46
2021/11/09 08:31:25;;;;;;;;;27.25;24.75;;;;;8.13;58.39;102230.75;4958163;27;45232;-48
2021/11/09 08:33:52;;;;;;;;;23.00;22.25;;;;;8.17;58.27;102236.94;4957639;28;45518;-45
2021/11/09 08:36:23;;;;;;;;;24.25;21.50;;;;;8.21;58.49;102230.88;4964388;28;47377;-43
2021/11/09 08:38:50;;;;;;;;;26.00;21.00;;;;;8.22;58.45;102224.81;4970862;28;45275;-44
2021/11/09 08:41:17;;;;;;;;;20.00;19.00;;;;;8.29;58.31;102237.16;4958050;28;45321;-44
2021/11/09 08:43:55;;;;;;;;;21.00;19.75;;;;;8.26;58.74;102219.66;5000400;28;45336;-44
2021/11/09 08:46:22;;;;;;;;;21.25;18.50;;;;;8.37;58.27;102237.31;4995135;28;48679;-49
2021/11/09 08:48:50;;;;;;;;;21.00;20.00;;;;;8.43;58.23;102240.91;4963191;28;45434;-46
2021/11/09 08:51:16;;;;;;;;;22.50;17.00;;;;;8.48;58.27;102242.78;4983002;28;45235;-43
2021/11/09 08:53:53;;;;;;;;;21.00;16.75;;;;;8.55;58.27;102239.41;4971004;28;45499;-44
2021/11/09 08:57:02;;;;;;;;;23.50;21.75;;;;;8.61;58.38;102229.03;4957551;28;46050;-43
2021/11/09 09:04:38;;;;;;;;;25.25;23.00;;;;;8.88;58.30;102238.22;4961140;28;45565;-47
2021/11/09 09:07:04;;;;;;;;;48.00;40.00;;;;;9.00;58.29;102234.94;4967010;28;46171;-48
2021/11/09 09:09:29;;;;;;;;;55.50;45.00;;;;;9.11;58.41;102226.38;4959418;28;45283;-48
2021/11/09 09:11:55;;;;;;;;;57.75;45.00;;;;;9.20;58.77;102224.78;4957429;28;45852;-47
2021/11/09 09:14:22;;;;;;;;;47.25;39.25;;;;;9.33;58.53;102221.44;4957306;28;45525;-44
2021/11/09 09:16:48;;;;;;;;;47.50;39.50;;;;;9.49;58.66;102221.69;4962619;28;46917;-44
2021/11/09 09:19:15;;;;;;;;;52.25;38.75;;;;;9.63;58.64;102220.13;4969977;28;45341;-45
2021/11/09 09:21:46;;;;;;;;;46.50;36.50;;;;;9.79;58.62;102215.97;4957291;28;45287;-43
2021/11/09 09:24:26;;;;;;;;;49.75;39.00;;;;;9.94;59.00;102212.63;4959168;28;45259;-45
2021/11/09 09:27:20;;;;;;;;;54.00;41.25;;;;;10.13;58.98;102215.50;4960011;28;46226;-45
2021/11/09 09:29:46;;;;;;;;;52.75;39.75;;;;;10.33;59.05;102224.44;4979464;28;45236;-45
2021/11/09 09:57:12;;;;;;;;;25.50;24.00;;;;;12.32;58.98;102214.34;4960824;28;45443;-46
2021/11/09 09:59:39;;;;;;;;;27.75;24.50;;;;;12.50;58.99;102204.69;4976745;27;45267;-47
2021/11/09 10:02:25;;;;;;;;;26.75;22.75;;;;;12.74;58.83;102211.78;4969875;28;45342;-45
2021/11/09 10:05:01;;;;;;;;;23.75;21.75;;;;;12.97;58.82;102216.16;4960215;28;45583;-49
2021/11/09 10:07:55;;;;;;;;;29.00;25.50;;;;;13.16;58.83;102214.38;4972464;28;45296;-46
2021/11/09 10:10:28;;;;;;;;;25.25;23.00;;;;;13.36;58.56;102205.53;4983636;28;45330;-46
2021/11/09 10:13:10;;;;;;;;;28.25;27.00;;;;;13.55;58.60;102211.69;4960268;28;45490;-47
2021/11/09 10:15:45;;;;;;;;;26.75;24.50;;;;;13.72;58.54;102203.69;4959636;28;45387;-46
2021/11/09 10:18:13;;;;;;;;;28.75;25.25;;;;;13.86;58.96;102199.25;4958254;28;45622;-45
2021/11/09 10:20:57;;;;;;;;;32.50;29.50;;;;;14.00;58.78;102201.81;4959378;28;46217;-47
2021/11/09 10:23:26;;;;;;;;;28.75;22.75;;;;;14.16;58.26;102202.56;4959533;28;45363;-45
2021/11/09 10:25:59;;;;;;;;;25.00;25.00;;;;;14.30;58.51;102198.09;4959467;28;45323;-45
2021/11/09 10:28:26;;;;;;;;;27.00;24.25;;;;;14.42;58.31;102188.31;4959439;28;45340;-46
2021/11/09 10:31:07;;;;;;;;;28.00;27.00;;;;;14.55;57.96;102195.28;4959331;28;45924;-46
2021/11/09 10:33:40;;;;;;;;;24.50;22.25;;;;;14.63;57.70;102193.44;4959163;28;45221;-47
2021/11/09 10:36:17;;;;;;;;;31.50;27.00;;;;;14.76;57.46;102191.59;4958649;28;45316;-45
2021/11/09 10:38:42;;;;;;;;;31.50;29.25;;;;;14.84;57.77;102194.22;4959229;28;45136;-47
2021/11/09 10:41:07;;;;;;;;;29.50;28.00;;;;;14.94;57.55;102184.38;4980106;28;45517;-48
2021/11/09 10:43:33;;;;;;;;;30.50;29.00;;;;;15.04;57.62;102182.53;4977101;28;45406;-44
2021/11/09 10:46:00;;;;;;;;;35.25;29.25;;;;;15.14;57.16;102183.31;4959416;28;45276;-47
2021/11/09 10:48:27;;;;;;;;;29.25;25.25;;;;;15.24;57.42;102182.31;4965092;28;45609;-47
2021/11/09 10:50:59;;;;;;;;;29.75;27.75;;;;;15.35;57.24;102183.09;4968731;28;46960;-48
2021/11/09 11:06:17;;;;;;;;;26.75;21.75;;;;;16.40;56.11;102180.81;4961899;28;45485;-46
2021/11/09 11:09:12;;;;;;;;;22.00;20.75;;;;;16.58;56.25;102185.84;4968672;28;45477;-46
2021/11/09 11:11:46;;;;;;;;;21.25;20.75;;;;;16.73;56.06;102174.09;4974576;28;45325;-46
2021/11/09 11:14:16;;;;;;;;;23.75;21.50;;;;;16.86;55.78;102176.53;4963190;28;45458;-46
2021/11/09 11:17:00;;;;;;;;;23.50;23.00;;;;;16.95;55.54;102164.91;4959127;28;45314;-49
2021/11/09 11:19:36;;;;;;;;;23.25;19.75;;;;;17.04;55.59;102156.75;4958677;28;45485;-49
2021/11/09 11:22:07;;;;;;;;;23.50;21.00;;;;;17.10;55.52;102154.00;4958919;28;46135;-47
2021/11/09 11:24:34;;;;;;;;;26.00;18.00;;;;;17.17;55.40;102152.97;4990411;28;45538;-44
2021/11/09 11:27:00;;;;;;;;;19.50;16.50;;;;;17.23;55.27;102146.66;4963834;28;45345;-46
2021/11/09 11:29:32;;;;;;;;;28.25;20.75;;;;;17.29;55.34;102145.69;4958828;28;45518;-47
2021/11/09 11:32:00;;;;;;;;;28.75;21.25;;;;;17.33;55.23;102131.41;4958633;28;46277;-48
2021/11/09 11:34:26;;;;;;;;;23.25;20.50;;;;;17.41;54.88;102131.25;4958673;28;45451;-46
2021/11/09 11:36:53;;;;;;;;;24.75;17.50;;;;;17.46;54.79;102127.59;4958665;28;45383;-44
2021/11/09 11:39:23;;;;;;;;;21.25;18.25;;;;;17.53;55.09;102123.03;4958728;28;45521;-48
2021/11/09 11:41:54;;;;;;;;;18.25;16.75;;;;;17.61;54.91;102120.19;4958456;28;45494;-46
2021/11/09 11:44:25;;;;;;;;;22.25;16.25;;;;;17.73;54.82;102119.06;4958590;28;45241;-49
2021/11/09 11:46:53;;;;;;;;;23.50;19.00;;;;;17.83;55.22;102108.16;4958691;28;45496;-48
2021/11/09 11:49:41;;;;;;;;;25.25;19.25;;;;;17.96;55.10;102105.25;4962968;28;45564;-47
2021/11/09 11:52:07;;;;;;;;;20.50;16.00;;;;;18.10;55.12;102097.84;4957595;28;46365;-45
2021/11/09 11:54:45;;;;;;;;;23.50;22.00;;;;;18.22;54.60;102101.97;4958501;28;45398;-45
2021/11/09 11:57:25;;;;;;;;;20.50;17.00;;;;;18.32;54.75;102099.97;4958467;28;45398;-47
2021/11/09 11:59:51;;;;;;;;;22.00;17.25;;;;;18.40;53.87;102098.00;4958060;28;45369;-47
2021/11/09 12:02:36;;;;;;;;;15.25;13.75;;;;;18.50;54.10;102099.50;4958000;28;45221;-45
2021/11/09 12:05:04;;;;;;;;;17.00;15.75;;;;;18.59;54.01;102105.47;4962511;28;45309;-45
2021/11/09 12:07:55;;;;;;;;;18.75;17.50;;;;;18.65;53.64;102090.25;4964839;28;45487;-48
2021/11/09 12:10:21;;;;;;;;;18.75;17.75;;;;;18.71;54.16;102094.50;4967895;28;45258;-49
2021/11/09 12:13:06;;;;;;;;;16.25;15.75;;;;;18.79;53.56;102086.31;4977251;28;46323;-45
2021/11/09 12:16:05;;;;;;;;;18.00;17.25;;;;;18.86;53.67;102087.91;4977558;28;45418;-49
2021/11/09 12:18:38;;;;;;;;;22.00;18.50;;;;;18.90;52.97;102073.59;4977585;28;45461;-47
2021/11/09 12:21:20;;;;;;;;;21.50;18.75;;;;;18.95;53.24;102076.16;4977230;28;45249;-49
2021/11/09 12:24:16;;;;;;;;;25.50;21.25;;;;;19.03;52.94;102070.59;4977129;28;45335;-48
2021/11/09 12:27:11;;;;;;;;;23.50;18.75;;;;;19.09;52.90;102067.75;4977311;28;45213;-46
2021/11/09 12:30:07;;;;;;;;;22.25;19.25;;;;;19.16;52.84;102064.00;4963487;28;45194;-47
2021/11/09 12:32:34;;;;;;;;;18.50;16.00;;;;;19.23;52.93;102070.91;4959545;28;45495;-47
2021/11/09 12:35:11;;;;;;;;;17.75;15.50;;;;;19.27;52.62;102069.00;4976940;28;46185;-46
2021/11/09 12:37:42;;;;;;;;;14.00;13.25;;;;;19.32;52.30;102072.44;4977247;28;45320;-45
2021/11/09 12:40:35;;;;;;;;;21.00;15.25;;;;;19.37;52.20;102070.50;4977234;28;45306;-47
2021/11/09 12:43:29;;;;;;;;;13.50;13.25;;;;;19.41;52.08;102064.16;4975842;28;45292;-46
2021/11/09 12:46:08;;;;;;;;;13.50;10.50;;;;;19.44;52.48;102064.03;4967151;28;46268;-48
2021/11/09 12:48:39;;;;;;;;;12.25;8.25;;;;;19.50;51.96;102060.31;4966807;28;45305;-47
2021/11/09 12:51:11;;;;;;;;;9.00;6.75;;;;;19.56;52.23;102056.59;4969068;28;45260;-45
2021/11/09 12:53:38;;;;;;;;;10.25;9.25;;;;;19.60;51.80;102052.91;4958435;28;45454;-47
2021/11/09 12:56:08;;;;;;;;;8.25;7.25;;;;;19.65;51.75;102054.50;4957636;28;45357;-46
2021/11/09 12:58:44;;;;;;;;;11.50;9.75;;;;;19.73;51.42;102050.72;4978135;28;45373;-48
2021/11/09 13:01:22;;;;;;;;;10.00;7.00;;;;;19.79;51.40;102048.72;4965533;28;45319;-48
2021/11/09 13:04:02;;;;;;;;;6.00;3.00;;;;;19.86;51.48;102049.47;4960192;28;45468;-46
2021/11/09 13:07:08;;;;;;;;;10.00;9.25;;;;;19.92;51.47;102043.03;4966121;28;46362;-48
2021/11/09 13:09:47;;;;;;;;;7.00;6.00;;;;;20.02;51.36;102047.13;4966445;28;45323;-50
2021/11/09 13:12:30;;;;;;;;;6.25;6.00;;;;;20.10;51.17;102045.09;4960513;28;45256;-49
2021/11/09 13:14:58;;;;;;;;;7.25;6.25;;;;;20.18;51.16;102038.63;4968788;28;45563;-50
2021/11/09 13:17:35;;;;;;;;;8.75;7.00;;;;;20.26;51.18;102040.13;4963947;28;46383;-48
2021/11/09 13:20:20;;;;;;;;;8.75;7.00;;;;;20.35;50.58;102038.94;4960394;28;45227;-48
2021/11/09 13:23:23;;;;;;;;;10.50;8.00;;;;;20.45;50.45;102037.69;4967122;28;45266;-50
2021/11/09 13:25:50;;;;;;;;;8.25;8.00;;;;;20.53;50.57;102033.88;4959798;28;45679;-48
2021/11/09 13:28:25;;;;;;;;;9.25;5.00;;;;;20.59;51.07;102031.84;4967793;28;46203;-46
2021/11/09 13:30:51;;;;;;;;;8.75;7.75;;;;;20.68;50.57;102037.75;4960218;28;45308;-50
2021/11/09 13:33:17;;;;;;;;;7.50;7.50;;;;;20.72;50.16;102031.44;4960086;28;45213;-50
2021/11/09 13:35:45;;;;;;;;;8.50;7.00;;;;;20.78;50.18;102041.91;4960242;28;45242;-50
2021/11/09 13:38:19;;;;;;;;;35.50;29.75;;;;;20.83;50.11;102028.34;4959955;28;45327;-50
2021/11/09 13:40:52;;;;;;;;;8.25;6.00;;;;;20.88;50.23;102023.69;4958758;28;45719;-50
2021/11/09 13:43:23;;;;;;;;;8.00;6.50;;;;;20.93;50.01;102027.97;4960097;28;45484;-47
2021/11/09 13:46:01;;;;;;;;;6.50;6.50;;;;;20.99;50.14;102021.50;4959011;28;45345;-49
2021/11/09 13:48:29;;;;;;;;;8.00;5.75;;;;;21.06;50.42;102017.66;4965586;28;46108;-45
2021/11/09 13:50:58;;;;;;;;;8.00;7.00;;;;;21.12;50.43;102019.25;4970130;28;45363;-48